sensor_id;sensor_type;location;lat;lon;timestamp;temperature;humidity
9383;DHT22;4731;49.708;10.816;2023-04-03T00:01:25;3.00;99.90
9383;DHT22;4731;49.708;10.816;2023-04-03T00:03:53;3.00;99.90
9383;DHT22;4731;49.708;10.816;2023-04-03T00:06:20;3.00;99.90
9383;DHT22;4731;49.708;10.816;2023-04-03T00:08:47;3.00;99.90
9383;DHT22;4731;49.708;10.816;2023-04-03T00:11:13;3.00;99.90
9383;DHT22;4731;49.708;10.816;2023-04-03T00:13:41;3.00;99.90
9383;DHT22;4731;49.708;10.816;2023-04-03T00:16:09;2.90;99.90
9383;DHT22;4731;49.708;10.816;2023-04-03T00:18:36;2.90;99.90
9383;DHT22;4731;49.708;10.816;2023-04-03T00:21:05;2.90;99.90
9383;DHT22;4731;49.708;10.816;2023-04-03T00:23:32;2.90;99.90
9383;DHT22;4731;49.708;10.816;2023-04-03T00:25:59;2.80;99.90
9383;DHT22;4731;49.708;10.816;2023-04-03T00:28:26;2.80;99.90
9383;DHT22;4731;49.708;10.816;2023-04-03T00:30:53;2.70;99.90
9383;DHT22;4731;49.708;10.816;2023-04-03T00:33:19;2.60;99.90
9383;DHT22;4731;49.708;10.816;2023-04-03T00:35:47;2.60;99.90
9383;DHT22;4731;49.708;10.816;2023-04-03T00:38:15;2.50;99.90
9383;DHT22;4731;49.708;10.816;2023-04-03T00:40:44;2.50;99.90
9383;DHT22;4731;49.708;10.816;2023-04-03T00:43:16;2.50;99.90
9383;DHT22;4731;49.708;10.816;2023-04-03T00:45:45;2.50;99.90
9383;DHT22;4731;49.708;10.816;2023-04-03T00:48:15;2.40;99.90
9383;DHT22;4731;49.708;10.816;2023-04-03T00:50:43;2.40;99.90
9383;DHT22;4731;49.708;10.816;2023-04-03T00:53:13;2.50;99.90
9383;DHT22;4731;49.708;10.816;2023-04-03T00:55:42;2.50;99.90
9383;DHT22;4731;49.708;10.816;2023-04-03T00:58:10;2.50;99.90
9383;DHT22;4731;49.708;10.816;2023-04-03T01:00:38;2.40;99.90
9383;DHT22;4731;49.708;10.816;2023-04-03T01:03:06;2.40;99.90
9383;DHT22;4731;49.708;10.816;2023-04-03T01:05:33;2.40;99.90
9383;DHT22;4731;49.708;10.816;2023-04-03T01:08:00;2.40;99.90
9383;DHT22;4731;49.708;10.816;2023-04-03T01:10:27;2.30;99.90
9383;DHT22;4731;49.708;10.816;2023-04-03T01:12:55;2.30;99.90
9383;DHT22;4731;49.708;10.816;2023-04-03T01:15:23;2.30;99.90
9383;DHT22;4731;49.708;10.816;2023-04-03T01:17:52;2.20;99.90
9383;DHT22;4731;49.708;10.816;2023-04-03T01:20:43;2.20;99.90
9383;DHT22;4731;49.708;10.816;2023-04-03T01:23:22;2.20;99.90
9383;DHT22;4731;49.708;10.816;2023-04-03T01:25:53;2.20;99.90
9383;DHT22;4731;49.708;10.816;2023-04-03T01:28:25;2.20;99.90
9383;DHT22;4731;49.708;10.816;2023-04-03T01:30:59;2.20;99.90
9383;DHT22;4731;49.708;10.816;2023-04-03T01:33:28;2.20;99.90
9383;DHT22;4731;49.708;10.816;2023-04-03T01:35:55;2.20;99.90
9383;DHT22;4731;49.708;10.816;2023-04-03T01:38:22;2.30;99.90
9383;DHT22;4731;49.708;10.816;2023-04-03T01:40:49;2.20;99.90
9383;DHT22;4731;49.708;10.816;2023-04-03T01:43:16;2.20;99.90
9383;DHT22;4731;49.708;10.816;2023-04-03T01:45:42;2.20;99.90
9383;DHT22;4731;49.708;10.816;2023-04-03T01:48:09;2.30;99.90
9383;DHT22;4731;49.708;10.816;2023-04-03T01:50:37;2.30;99.90
9383;DHT22;4731;49.708;10.816;2023-04-03T01:53:04;2.30;99.90
9383;DHT22;4731;49.708;10.816;2023-04-03T01:55:31;2.30;99.90
9383;DHT22;4731;49.708;10.816;2023-04-03T01:57:57;2.30;99.90
9383;DHT22;4731;49.708;10.816;2023-04-03T02:00:24;2.30;99.90
9383;DHT22;4731;49.708;10.816;2023-04-03T02:02:52;2.30;99.90
9383;DHT22;4731;49.708;10.816;2023-04-03T02:05:19;2.30;99.90
9383;DHT22;4731;49.708;10.816;2023-04-03T02:07:47;2.30;99.90
9383;DHT22;4731;49.708;10.816;2023-04-03T02:10:14;2.30;99.90
9383;DHT22;4731;49.708;10.816;2023-04-03T02:12:40;2.30;99.90
9383;DHT22;4731;49.708;10.816;2023-04-03T02:15:08;2.30;99.90
9383;DHT22;4731;49.708;10.816;2023-04-03T02:17:35;2.30;99.90
9383;DHT22;4731;49.708;10.816;2023-04-03T02:20:03;2.30;99.90
9383;DHT22;4731;49.708;10.816;2023-04-03T02:22:30;2.30;99.90
9383;DHT22;4731;49.708;10.816;2023-04-03T02:24:58;2.30;99.90
9383;DHT22;4731;49.708;10.816;2023-04-03T02:27:24;2.40;99.90
9383;DHT22;4731;49.708;10.816;2023-04-03T02:29:51;2.30;99.90
9383;DHT22;4731;49.708;10.816;2023-04-03T02:32:18;4.50;99.90
9383;DHT22;4731;49.708;10.816;2023-04-03T02:34:44;2.30;99.90
9383;DHT22;4731;49.708;10.816;2023-04-03T02:37:11;2.30;99.90
9383;DHT22;4731;49.708;10.816;2023-04-03T02:39:38;2.30;99.90
9383;DHT22;4731;49.708;10.816;2023-04-03T02:42:06;2.30;99.90
9383;DHT22;4731;49.708;10.816;2023-04-03T02:44:33;2.40;99.90
9383;DHT22;4731;49.708;10.816;2023-04-03T02:47:01;2.30;99.90
9383;DHT22;4731;49.708;10.816;2023-04-03T02:49:28;2.40;99.90
9383;DHT22;4731;49.708;10.816;2023-04-03T02:51:55;2.40;99.90
9383;DHT22;4731;49.708;10.816;2023-04-03T02:54:21;2.40;99.90
9383;DHT22;4731;49.708;10.816;2023-04-03T02:56:48;2.50;99.90
9383;DHT22;4731;49.708;10.816;2023-04-03T02:59:16;2.50;99.90
9383;DHT22;4731;49.708;10.816;2023-04-03T03:01:43;2.50;99.90
9383;DHT22;4731;49.708;10.816;2023-04-03T03:04:10;2.50;99.90
9383;DHT22;4731;49.708;10.816;2023-04-03T03:06:37;2.60;99.90
9383;DHT22;4731;49.708;10.816;2023-04-03T03:09:04;2.60;99.90
9383;DHT22;4731;49.708;10.816;2023-04-03T03:11:31;2.50;99.90
9383;DHT22;4731;49.708;10.816;2023-04-03T03:13:58;2.50;99.90
9383;DHT22;4731;49.708;10.816;2023-04-03T03:16:26;2.50;99.90
9383;DHT22;4731;49.708;10.816;2023-04-03T03:18:53;2.50;99.90
9383;DHT22;4731;49.708;10.816;2023-04-03T03:21:19;2.50;99.90
9383;DHT22;4731;49.708;10.816;2023-04-03T03:23:46;2.60;99.90
9383;DHT22;4731;49.708;10.816;2023-04-03T03:26:13;2.50;99.90
9383;DHT22;4731;49.708;10.816;2023-04-03T03:28:40;2.60;99.90
9383;DHT22;4731;49.708;10.816;2023-04-03T03:31:08;2.60;99.90
9383;DHT22;4731;49.708;10.816;2023-04-03T03:33:37;2.60;99.90
9383;DHT22;4731;49.708;10.816;2023-04-03T03:36:04;2.60;99.90
9383;DHT22;4731;49.708;10.816;2023-04-03T03:38:30;2.60;99.90
9383;DHT22;4731;49.708;10.816;2023-04-03T03:40:57;2.60;99.90
9383;DHT22;4731;49.708;10.816;2023-04-03T03:43:24;2.60;99.90
9383;DHT22;4731;49.708;10.816;2023-04-03T03:45:51;2.50;99.90
9383;DHT22;4731;49.708;10.816;2023-04-03T03:48:18;2.50;99.90
9383;DHT22;4731;49.708;10.816;2023-04-03T03:50:47;2.60;99.90
9383;DHT22;4731;49.708;10.816;2023-04-03T03:53:13;2.50;99.90
9383;DHT22;4731;49.708;10.816;2023-04-03T03:55:40;2.50;99.90
9383;DHT22;4731;49.708;10.816;2023-04-03T03:58:07;2.50;99.90
9383;DHT22;4731;49.708;10.816;2023-04-03T04:00:34;2.50;99.90
9383;DHT22;4731;49.708;10.816;2023-04-03T04:03:01;2.50;99.90
9383;DHT22;4731;49.708;10.816;2023-04-03T04:05:27;2.50;99.90
9383;DHT22;4731;49.708;10.816;2023-04-03T04:07:55;2.50;99.90
9383;DHT22;4731;49.708;10.816;2023-04-03T04:10:22;2.40;99.90
9383;DHT22;4731;49.708;10.816;2023-04-03T04:12:49;2.30;99.90
9383;DHT22;4731;49.708;10.816;2023-04-03T04:15:16;2.20;99.90
9383;DHT22;4731;49.708;10.816;2023-04-03T04:17:43;2.20;99.90
9383;DHT22;4731;49.708;10.816;2023-04-03T04:20:11;2.10;99.90
9383;DHT22;4731;49.708;10.816;2023-04-03T04:22:38;2.10;99.90
9383;DHT22;4731;49.708;10.816;2023-04-03T04:25:07;4.30;99.90
9383;DHT22;4731;49.708;10.816;2023-04-03T04:27:34;1.80;99.90
9383;DHT22;4731;49.708;10.816;2023-04-03T04:30:01;1.80;99.90
9383;DHT22;4731;49.708;10.816;2023-04-03T04:32:28;1.70;99.90
9383;DHT22;4731;49.708;10.816;2023-04-03T04:34:54;1.70;99.90
9383;DHT22;4731;49.708;10.816;2023-04-03T04:37:21;1.60;99.90
9383;DHT22;4731;49.708;10.816;2023-04-03T04:39:48;1.50;99.90
9383;DHT22;4731;49.708;10.816;2023-04-03T04:42:16;1.60;99.90
9383;DHT22;4731;49.708;10.816;2023-04-03T04:44:43;1.60;99.90
9383;DHT22;4731;49.708;10.816;2023-04-03T04:47:09;1.50;99.90
9383;DHT22;4731;49.708;10.816;2023-04-03T04:49:36;1.50;99.90
9383;DHT22;4731;49.708;10.816;2023-04-03T04:52:03;1.40;99.90
9383;DHT22;4731;49.708;10.816;2023-04-03T04:54:30;1.40;99.90
9383;DHT22;4731;49.708;10.816;2023-04-03T04:56:57;1.40;99.90
9383;DHT22;4731;49.708;10.816;2023-04-03T04:59:25;1.30;99.90
9383;DHT22;4731;49.708;10.816;2023-04-03T05:01:52;1.30;99.90
9383;DHT22;4731;49.708;10.816;2023-04-03T05:04:20;1.30;99.90
9383;DHT22;4731;49.708;10.816;2023-04-03T05:06:47;1.30;99.90
9383;DHT22;4731;49.708;10.816;2023-04-03T05:09:13;1.30;99.90
9383;DHT22;4731;49.708;10.816;2023-04-03T05:11:40;1.30;99.90
9383;DHT22;4731;49.708;10.816;2023-04-03T05:14:08;1.30;99.90
9383;DHT22;4731;49.708;10.816;2023-04-03T05:16:36;1.30;99.90
9383;DHT22;4731;49.708;10.816;2023-04-03T05:19:03;1.30;99.90
9383;DHT22;4731;49.708;10.816;2023-04-03T05:21:30;1.40;99.90
9383;DHT22;4731;49.708;10.816;2023-04-03T05:23:58;1.30;99.90
9383;DHT22;4731;49.708;10.816;2023-04-03T05:26:25;1.40;99.90
9383;DHT22;4731;49.708;10.816;2023-04-03T05:28:52;1.50;99.90
9383;DHT22;4731;49.708;10.816;2023-04-03T05:31:19;1.50;99.90
9383;DHT22;4731;49.708;10.816;2023-04-03T05:33:47;1.50;99.90
9383;DHT22;4731;49.708;10.816;2023-04-03T05:36:14;1.60;99.90
9383;DHT22;4731;49.708;10.816;2023-04-03T05:38:42;1.60;99.90
9383;DHT22;4731;49.708;10.816;2023-04-03T05:41:09;1.70;99.90
9383;DHT22;4731;49.708;10.816;2023-04-03T05:43:35;1.70;99.90
9383;DHT22;4731;49.708;10.816;2023-04-03T05:46:04;1.70;99.90
9383;DHT22;4731;49.708;10.816;2023-04-03T05:48:33;1.80;99.90
9383;DHT22;4731;49.708;10.816;2023-04-03T05:51:01;1.80;99.90
9383;DHT22;4731;49.708;10.816;2023-04-03T05:53:29;1.90;99.90
9383;DHT22;4731;49.708;10.816;2023-04-03T05:55:58;1.90;99.90
9383;DHT22;4731;49.708;10.816;2023-04-03T05:58:24;3.80;99.90
9383;DHT22;4731;49.708;10.816;2023-04-03T06:00:51;2.10;99.90
9383;DHT22;4731;49.708;10.816;2023-04-03T06:03:18;2.20;99.90
9383;DHT22;4731;49.708;10.816;2023-04-03T06:05:45;2.20;99.90
9383;DHT22;4731;49.708;10.816;2023-04-03T06:08:14;2.50;99.90
9383;DHT22;4731;49.708;10.816;2023-04-03T06:10:40;2.70;99.90
9383;DHT22;4731;49.708;10.816;2023-04-03T06:13:07;2.70;99.90
9383;DHT22;4731;49.708;10.816;2023-04-03T06:15:34;2.60;99.90
9383;DHT22;4731;49.708;10.816;2023-04-03T06:18:00;2.60;99.90
9383;DHT22;4731;49.708;10.816;2023-04-03T06:20:27;3.60;99.90
9383;DHT22;4731;49.708;10.816;2023-04-03T06:22:54;3.30;99.90
9383;DHT22;4731;49.708;10.816;2023-04-03T06:25:22;3.70;99.90
9383;DHT22;4731;49.708;10.816;2023-04-03T06:27:48;3.70;99.90
9383;DHT22;4731;49.708;10.816;2023-04-03T06:30:15;3.60;99.90
9383;DHT22;4731;49.708;10.816;2023-04-03T06:32:42;3.50;99.90
9383;DHT22;4731;49.708;10.816;2023-04-03T06:35:09;3.50;99.90
9383;DHT22;4731;49.708;10.816;2023-04-03T06:37:36;3.50;99.90
9383;DHT22;4731;49.708;10.816;2023-04-03T06:40:04;3.50;99.90
9383;DHT22;4731;49.708;10.816;2023-04-03T06:42:33;3.60;99.90
9383;DHT22;4731;49.708;10.816;2023-04-03T06:44:59;3.60;99.90
9383;DHT22;4731;49.708;10.816;2023-04-03T06:47:26;3.80;99.90
9383;DHT22;4731;49.708;10.816;2023-04-03T06:49:53;3.90;99.90
9383;DHT22;4731;49.708;10.816;2023-04-03T06:52:20;4.10;99.90
9383;DHT22;4731;49.708;10.816;2023-04-03T06:54:47;4.30;99.90
9383;DHT22;4731;49.708;10.816;2023-04-03T06:57:13;4.30;99.90
9383;DHT22;4731;49.708;10.816;2023-04-03T06:59:42;4.40;99.90
9383;DHT22;4731;49.708;10.816;2023-04-03T07:02:10;5.70;99.90
9383;DHT22;4731;49.708;10.816;2023-04-03T07:04:37;4.60;99.90
9383;DHT22;4731;49.708;10.816;2023-04-03T07:07:04;4.70;99.90
9383;DHT22;4731;49.708;10.816;2023-04-03T07:09:34;5.50;99.90
9383;DHT22;4731;49.708;10.816;2023-04-03T07:12:01;5.70;99.90
9383;DHT22;4731;49.708;10.816;2023-04-03T07:14:28;6.80;99.90
9383;DHT22;4731;49.708;10.816;2023-04-03T07:16:57;6.70;99.90
9383;DHT22;4731;49.708;10.816;2023-04-03T07:19:24;6.50;99.90
9383;DHT22;4731;49.708;10.816;2023-04-03T07:21:53;6.50;99.90
9383;DHT22;4731;49.708;10.816;2023-04-03T07:24:21;7.00;99.90
9383;DHT22;4731;49.708;10.816;2023-04-03T07:26:49;7.40;99.90
9383;DHT22;4731;49.708;10.816;2023-04-03T07:29:17;7.30;99.90
9383;DHT22;4731;49.708;10.816;2023-04-03T07:31:43;7.50;99.90
9383;DHT22;4731;49.708;10.816;2023-04-03T07:34:12;7.50;99.90
9383;DHT22;4731;49.708;10.816;2023-04-03T07:36:38;7.70;99.90
9383;DHT22;4731;49.708;10.816;2023-04-03T07:39:06;7.60;99.90
9383;DHT22;4731;49.708;10.816;2023-04-03T07:41:33;9.00;99.90
9383;DHT22;4731;49.708;10.816;2023-04-03T07:44:00;11.10;99.90
9383;DHT22;4731;49.708;10.816;2023-04-03T07:46:28;12.40;99.90
9383;DHT22;4731;49.708;10.816;2023-04-03T07:48:54;14.10;99.90
9383;DHT22;4731;49.708;10.816;2023-04-03T07:51:22;15.30;99.90
9383;DHT22;4731;49.708;10.816;2023-04-03T07:53:50;15.40;99.90
9383;DHT22;4731;49.708;10.816;2023-04-03T07:56:16;15.10;99.90
9383;DHT22;4731;49.708;10.816;2023-04-03T07:58:43;16.10;99.90
9383;DHT22;4731;49.708;10.816;2023-04-03T08:01:10;13.00;99.90
9383;DHT22;4731;49.708;10.816;2023-04-03T08:03:38;14.30;99.90
9383;DHT22;4731;49.708;10.816;2023-04-03T08:06:07;13.90;99.90
9383;DHT22;4731;49.708;10.816;2023-04-03T08:08:35;14.80;99.90
9383;DHT22;4731;49.708;10.816;2023-04-03T08:11:02;15.00;99.90
9383;DHT22;4731;49.708;10.816;2023-04-03T08:13:31;15.70;99.90
9383;DHT22;4731;49.708;10.816;2023-04-03T08:16:07;18.00;99.90
9383;DHT22;4731;49.708;10.816;2023-04-03T08:18:35;17.80;99.90
9383;DHT22;4731;49.708;10.816;2023-04-03T08:21:06;18.30;96.90
9383;DHT22;4731;49.708;10.816;2023-04-03T08:23:32;17.90;94.20
9383;DHT22;4731;49.708;10.816;2023-04-03T08:26:05;17.60;93.40
9383;DHT22;4731;49.708;10.816;2023-04-03T08:28:32;17.20;93.80
9383;DHT22;4731;49.708;10.816;2023-04-03T08:31:03;16.90;93.90
9383;DHT22;4731;49.708;10.816;2023-04-03T08:33:31;18.60;94.80
9383;DHT22;4731;49.708;10.816;2023-04-03T08:35:59;16.80;93.30
9383;DHT22;4731;49.708;10.816;2023-04-03T08:38:27;17.60;94.20
9383;DHT22;4731;49.708;10.816;2023-04-03T08:41:04;20.10;93.20
9383;DHT22;4731;49.708;10.816;2023-04-03T08:43:36;18.10;91.40
9383;DHT22;4731;49.708;10.816;2023-04-03T08:46:08;18.00;90.50
9383;DHT22;4731;49.708;10.816;2023-04-03T08:48:40;17.50;90.30
9383;DHT22;4731;49.708;10.816;2023-04-03T08:51:12;17.60;89.30
9383;DHT22;4731;49.708;10.816;2023-04-03T08:53:43;17.90;88.70
9383;DHT22;4731;49.708;10.816;2023-04-03T08:56:14;17.50;86.00
9383;DHT22;4731;49.708;10.816;2023-04-03T08:58:47;18.70;90.70
9383;DHT22;4731;49.708;10.816;2023-04-03T09:01:20;18.00;91.30
9383;DHT22;4731;49.708;10.816;2023-04-03T09:03:47;18.30;90.90
9383;DHT22;4731;49.708;10.816;2023-04-03T09:06:17;17.30;88.20
9383;DHT22;4731;49.708;10.816;2023-04-03T09:08:50;17.80;87.00
9383;DHT22;4731;49.708;10.816;2023-04-03T09:11:22;18.40;86.00
9383;DHT22;4731;49.708;10.816;2023-04-03T09:13:56;18.50;79.80
9383;DHT22;4731;49.708;10.816;2023-04-03T09:16:39;17.40;81.80
9383;DHT22;4731;49.708;10.816;2023-04-03T09:19:21;18.90;88.50
9383;DHT22;4731;49.708;10.816;2023-04-03T09:21:49;18.20;81.90
9383;DHT22;4731;49.708;10.816;2023-04-03T09:24:17;16.60;80.50
9383;DHT22;4731;49.708;10.816;2023-04-03T09:26:51;15.70;82.00
9383;DHT22;4731;49.708;10.816;2023-04-03T09:29:21;13.20;83.30
9383;DHT22;4731;49.708;10.816;2023-04-03T09:31:50;14.20;90.00
9383;DHT22;4731;49.708;10.816;2023-04-03T09:34:23;10.80;90.00
9383;DHT22;4731;49.708;10.816;2023-04-03T09:36:53;11.80;90.40
9383;DHT22;4731;49.708;10.816;2023-04-03T09:39:21;13.50;84.60
9383;DHT22;4731;49.708;10.816;2023-04-03T09:41:58;11.10;86.30
9383;DHT22;4731;49.708;10.816;2023-04-03T09:44:27;10.90;91.00
9383;DHT22;4731;49.708;10.816;2023-04-03T09:46:55;11.90;91.00
9383;DHT22;4731;49.708;10.816;2023-04-03T09:49:22;13.40;91.00
9383;DHT22;4731;49.708;10.816;2023-04-03T09:51:48;14.80;85.00
9383;DHT22;4731;49.708;10.816;2023-04-03T09:54:32;18.70;87.10
9383;DHT22;4731;49.708;10.816;2023-04-03T09:57:04;19.40;79.50
9383;DHT22;4731;49.708;10.816;2023-04-03T09:59:31;19.10;76.60
9383;DHT22;4731;49.708;10.816;2023-04-03T10:01:59;18.40;71.40
9383;DHT22;4731;49.708;10.816;2023-04-03T10:04:37;18.50;73.80
9383;DHT22;4731;49.708;10.816;2023-04-03T10:07:30;19.00;72.30
9383;DHT22;4731;49.708;10.816;2023-04-03T10:09:58;19.10;70.30
9383;DHT22;4731;49.708;10.816;2023-04-03T10:12:25;19.40;69.30
9383;DHT22;4731;49.708;10.816;2023-04-03T10:14:56;20.90;70.10
9383;DHT22;4731;49.708;10.816;2023-04-03T10:17:37;18.40;68.40
9383;DHT22;4731;49.708;10.816;2023-04-03T10:20:16;18.10;67.00
9383;DHT22;4731;49.708;10.816;2023-04-03T10:23:00;16.50;67.50
9383;DHT22;4731;49.708;10.816;2023-04-03T10:25:32;18.20;73.50
9383;DHT22;4731;49.708;10.816;2023-04-03T10:28:04;18.50;72.00
9383;DHT22;4731;49.708;10.816;2023-04-03T10:30:39;19.60;66.10
9383;DHT22;4731;49.708;10.816;2023-04-03T10:33:20;20.20;66.20
9383;DHT22;4731;49.708;10.816;2023-04-03T10:35:59;19.60;62.30
9383;DHT22;4731;49.708;10.816;2023-04-03T10:38:40;22.10;65.40
9383;DHT22;4731;49.708;10.816;2023-04-03T10:41:14;21.00;65.80
9383;DHT22;4731;49.708;10.816;2023-04-03T10:43:46;20.20;63.00
9383;DHT22;4731;49.708;10.816;2023-04-03T10:46:20;20.10;60.20
9383;DHT22;4731;49.708;10.816;2023-04-03T10:49:00;20.00;63.30
9383;DHT22;4731;49.708;10.816;2023-04-03T10:51:31;20.00;61.20
9383;DHT22;4731;49.708;10.816;2023-04-03T10:54:07;21.30;62.40
9383;DHT22;4731;49.708;10.816;2023-04-03T10:56:38;20.70;62.40
9383;DHT22;4731;49.708;10.816;2023-04-03T10:59:15;20.40;58.40
9383;DHT22;4731;49.708;10.816;2023-04-03T11:01:48;19.50;58.40
9383;DHT22;4731;49.708;10.816;2023-04-03T11:04:16;18.10;60.00
9383;DHT22;4731;49.708;10.816;2023-04-03T11:06:46;18.90;59.70
9383;DHT22;4731;49.708;10.816;2023-04-03T11:09:21;20.10;60.80
9383;DHT22;4731;49.708;10.816;2023-04-03T11:11:53;21.40;61.00
9383;DHT22;4731;49.708;10.816;2023-04-03T11:14:26;19.60;61.50
9383;DHT22;4731;49.708;10.816;2023-04-03T11:17:01;20.00;58.70
9383;DHT22;4731;49.708;10.816;2023-04-03T11:19:35;20.30;59.10
9383;DHT22;4731;49.708;10.816;2023-04-03T11:22:10;20.70;58.10
9383;DHT22;4731;49.708;10.816;2023-04-03T11:24:43;20.90;60.40
9383;DHT22;4731;49.708;10.816;2023-04-03T11:27:17;20.40;59.30
9383;DHT22;4731;49.708;10.816;2023-04-03T11:29:49;20.30;60.20
9383;DHT22;4731;49.708;10.816;2023-04-03T11:32:41;21.10;59.90
9383;DHT22;4731;49.708;10.816;2023-04-03T11:35:11;19.80;57.20
9383;DHT22;4731;49.708;10.816;2023-04-03T11:37:40;19.50;59.40
9383;DHT22;4731;49.708;10.816;2023-04-03T11:40:22;19.50;57.20
9383;DHT22;4731;49.708;10.816;2023-04-03T11:42:52;14.80;56.70
9383;DHT22;4731;49.708;10.816;2023-04-03T11:45:37;16.20;62.50
9383;DHT22;4731;49.708;10.816;2023-04-03T11:48:06;17.50;61.20
9383;DHT22;4731;49.708;10.816;2023-04-03T11:50:43;17.90;62.10
9383;DHT22;4731;49.708;10.816;2023-04-03T11:53:33;18.40;59.50
9383;DHT22;4731;49.708;10.816;2023-04-03T11:56:05;19.60;61.70
9383;DHT22;4731;49.708;10.816;2023-04-03T11:59:22;17.70;62.10
9383;DHT22;4731;49.708;10.816;2023-04-03T12:01:50;17.90;62.60
9383;DHT22;4731;49.708;10.816;2023-04-03T12:04:18;18.40;62.20
9383;DHT22;4731;49.708;10.816;2023-04-03T12:06:53;18.90;61.60
9383;DHT22;4731;49.708;10.816;2023-04-03T12:12:37;19.10;61.20
9383;DHT22;4731;49.708;10.816;2023-04-03T12:18:42;19.30;60.00
9383;DHT22;4731;49.708;10.816;2023-04-03T12:21:09;19.30;60.20
9383;DHT22;4731;49.708;10.816;2023-04-03T12:23:57;19.90;60.00
9383;DHT22;4731;49.708;10.816;2023-04-03T12:26:26;18.70;60.70
9383;DHT22;4731;49.708;10.816;2023-04-03T12:28:55;18.60;60.20
9383;DHT22;4731;49.708;10.816;2023-04-03T12:31:25;20.00;59.70
9383;DHT22;4731;49.708;10.816;2023-04-03T12:34:18;20.30;62.20
9383;DHT22;4731;49.708;10.816;2023-04-03T12:36:58;20.50;59.80
9383;DHT22;4731;49.708;10.816;2023-04-03T12:39:44;20.10;57.50
9383;DHT22;4731;49.708;10.816;2023-04-03T12:42:31;19.70;58.20
9383;DHT22;4731;49.708;10.816;2023-04-03T12:45:02;19.80;56.70
9383;DHT22;4731;49.708;10.816;2023-04-03T12:47:36;18.90;58.80
9383;DHT22;4731;49.708;10.816;2023-04-03T12:50:17;19.60;61.50
9383;DHT22;4731;49.708;10.816;2023-04-03T12:52:51;16.90;59.60
9383;DHT22;4731;49.708;10.816;2023-04-03T12:55:21;16.60;60.50
9383;DHT22;4731;49.708;10.816;2023-04-03T12:57:48;16.30;62.00
9383;DHT22;4731;49.708;10.816;2023-04-03T13:00:27;17.70;62.90
9383;DHT22;4731;49.708;10.816;2023-04-03T13:02:54;17.00;60.50
9383;DHT22;4731;49.708;10.816;2023-04-03T13:05:23;17.10;59.60
9383;DHT22;4731;49.708;10.816;2023-04-03T13:07:54;17.00;60.50
9383;DHT22;4731;49.708;10.816;2023-04-03T13:10:22;17.50;61.90
9383;DHT22;4731;49.708;10.816;2023-04-03T13:12:51;18.50;62.30
9383;DHT22;4731;49.708;10.816;2023-04-03T13:15:20;17.70;59.70
9383;DHT22;4731;49.708;10.816;2023-04-03T13:17:48;17.40;59.90
9383;DHT22;4731;49.708;10.816;2023-04-03T13:20:21;17.50;59.80
9383;DHT22;4731;49.708;10.816;2023-04-03T13:22:53;17.80;61.00
9383;DHT22;4731;49.708;10.816;2023-04-03T13:25:24;18.20;61.00
9383;DHT22;4731;49.708;10.816;2023-04-03T13:27:52;18.40;58.90
9383;DHT22;4731;49.708;10.816;2023-04-03T13:30:29;18.40;58.60
9383;DHT22;4731;49.708;10.816;2023-04-03T13:32:58;17.20;58.60
9383;DHT22;4731;49.708;10.816;2023-04-03T13:35:32;16.20;59.30
9383;DHT22;4731;49.708;10.816;2023-04-03T13:38:05;16.20;60.70
9383;DHT22;4731;49.708;10.816;2023-04-03T13:40:32;16.60;59.10
9383;DHT22;4731;49.708;10.816;2023-04-03T13:43:02;18.70;62.30
9383;DHT22;4731;49.708;10.816;2023-04-03T13:45:31;14.90;62.00
9383;DHT22;4731;49.708;10.816;2023-04-03T13:48:14;15.20;62.00
9383;DHT22;4731;49.708;10.816;2023-04-03T13:50:54;15.10;61.80
9383;DHT22;4731;49.708;10.816;2023-04-03T13:53:23;18.10;66.40
9383;DHT22;4731;49.708;10.816;2023-04-03T13:56:00;17.60;62.90
9383;DHT22;4731;49.708;10.816;2023-04-03T13:58:32;15.90;60.60
9383;DHT22;4731;49.708;10.816;2023-04-03T14:01:05;15.10;59.50
9383;DHT22;4731;49.708;10.816;2023-04-03T14:03:42;15.10;62.30
9383;DHT22;4731;49.708;10.816;2023-04-03T14:06:13;14.60;62.50
9383;DHT22;4731;49.708;10.816;2023-04-03T14:08:42;14.00;62.90
9383;DHT22;4731;49.708;10.816;2023-04-03T14:11:13;13.50;65.10
9383;DHT22;4731;49.708;10.816;2023-04-03T14:13:42;13.20;65.80
9383;DHT22;4731;49.708;10.816;2023-04-03T14:16:13;13.40;64.60
9383;DHT22;4731;49.708;10.816;2023-04-03T14:18:42;13.40;64.90
9383;DHT22;4731;49.708;10.816;2023-04-03T14:21:11;13.70;64.80
9383;DHT22;4731;49.708;10.816;2023-04-03T14:23:38;13.70;64.20
9383;DHT22;4731;49.708;10.816;2023-04-03T14:26:10;15.40;65.50
9383;DHT22;4731;49.708;10.816;2023-04-03T14:28:39;13.50;64.90
9383;DHT22;4731;49.708;10.816;2023-04-03T14:31:06;13.60;63.80
9383;DHT22;4731;49.708;10.816;2023-04-03T14:33:33;13.20;64.60
9383;DHT22;4731;49.708;10.816;2023-04-03T14:36:01;14.40;67.30
9383;DHT22;4731;49.708;10.816;2023-04-03T14:38:30;12.90;64.80
9383;DHT22;4731;49.708;10.816;2023-04-03T14:40:57;12.10;68.40
9383;DHT22;4731;49.708;10.816;2023-04-03T14:43:26;11.80;70.00
9383;DHT22;4731;49.708;10.816;2023-04-03T14:45:53;11.20;71.40
9383;DHT22;4731;49.708;10.816;2023-04-03T14:48:22;10.90;71.60
9383;DHT22;4731;49.708;10.816;2023-04-03T14:50:50;13.60;75.20
9383;DHT22;4731;49.708;10.816;2023-04-03T14:53:18;10.30;73.70
9383;DHT22;4731;49.708;10.816;2023-04-03T14:55:51;10.00;73.40
9383;DHT22;4731;49.708;10.816;2023-04-03T14:58:19;9.40;75.70
9383;DHT22;4731;49.708;10.816;2023-04-03T15:00:48;9.40;76.40
9383;DHT22;4731;49.708;10.816;2023-04-03T15:03:20;9.80;78.00
9383;DHT22;4731;49.708;10.816;2023-04-03T15:05:49;9.30;77.00
9383;DHT22;4731;49.708;10.816;2023-04-03T15:08:19;9.20;75.70
9383;DHT22;4731;49.708;10.816;2023-04-03T15:10:47;9.20;75.50
9383;DHT22;4731;49.708;10.816;2023-04-03T15:13:14;9.10;79.40
9383;DHT22;4731;49.708;10.816;2023-04-03T15:15:41;8.90;80.00
9383;DHT22;4731;49.708;10.816;2023-04-03T15:18:15;8.80;80.80
9383;DHT22;4731;49.708;10.816;2023-04-03T15:20:42;8.50;80.80
9383;DHT22;4731;49.708;10.816;2023-04-03T15:23:10;8.40;83.50
9383;DHT22;4731;49.708;10.816;2023-04-03T15:25:38;8.30;83.80
9383;DHT22;4731;49.708;10.816;2023-04-03T15:28:05;8.20;81.20
9383;DHT22;4731;49.708;10.816;2023-04-03T15:30:34;11.10;83.00
9383;DHT22;4731;49.708;10.816;2023-04-03T15:33:03;8.10;83.20
9383;DHT22;4731;49.708;10.816;2023-04-03T15:35:31;8.00;86.30
9383;DHT22;4731;49.708;10.816;2023-04-03T15:37:58;7.90;85.70
9383;DHT22;4731;49.708;10.816;2023-04-03T15:40:24;7.90;84.60
9383;DHT22;4731;49.708;10.816;2023-04-03T15:42:51;8.00;87.00
9383;DHT22;4731;49.708;10.816;2023-04-03T15:45:18;8.00;86.90
9383;DHT22;4731;49.708;10.816;2023-04-03T15:47:46;8.00;88.30
9383;DHT22;4731;49.708;10.816;2023-04-03T15:50:13;8.00;90.80
9383;DHT22;4731;49.708;10.816;2023-04-03T15:52:43;7.90;92.20
9383;DHT22;4731;49.708;10.816;2023-04-03T15:55:10;7.80;94.20
9383;DHT22;4731;49.708;10.816;2023-04-03T15:57:37;7.70;91.50
9383;DHT22;4731;49.708;10.816;2023-04-03T16:00:05;7.50;91.50
9383;DHT22;4731;49.708;10.816;2023-04-03T16:02:32;7.20;90.00
9383;DHT22;4731;49.708;10.816;2023-04-03T16:05:00;7.00;91.50
9383;DHT22;4731;49.708;10.816;2023-04-03T16:07:27;7.00;90.40
9383;DHT22;4731;49.708;10.816;2023-04-03T16:09:55;6.80;92.40
9383;DHT22;4731;49.708;10.816;2023-04-03T16:12:22;6.80;91.70
9383;DHT22;4731;49.708;10.816;2023-04-03T16:14:49;6.70;91.20
9383;DHT22;4731;49.708;10.816;2023-04-03T16:17:16;6.70;92.70